ADDS METAR Data INFO
IDs: Format: Raw Decoded Include TAF

Data at: 1304 UTC 11 Dec 2017

KPNT 111255Z AUTO 17011KT 10SM BKN120 M02/M03 A2996 RMK AO2 T10191033
KPNT 111235Z AUTO 18008KT 10SM SCT120 M02/M03 A3000 RMK AO2 T10211035
KPNT 111215Z AUTO 17004KT 10SM SCT120 M03/M04 A3000 RMK AO2 T10281036
KPNT 111155Z AUTO 14005KT 10SM SCT120 M03/M04 A3000 RMK AO2 T10321039 11028 21092
KPNT 111135Z AUTO 14004KT 10SM CLR M03/M04 A3001 RMK AO2 T10311040
KPNT 111115Z AUTO 16004KT 10SM CLR M03/M04 A3001 RMK AO2 T10281038
KPNT 111055Z AUTO 14007KT 10SM SCT120 M03/M04 A3000 RMK AO2 T10301040
KPNT 111035Z AUTO 18003KT 10SM SCT120 M03/M04 A3003 RMK AO2 T10351043
KPNT 111015Z AUTO 13004KT 10SM BKN090 BKN120 M03/M04 A3001 RMK AO2 T10351045
KPNT 110955Z AUTO 20004KT 10SM BKN090 M04/M05 A3005 RMK AO2 T10391046
KPNT 110935Z AUTO 00000KT 10SM SCT090 M05/M05 A3005 RMK AO2 T10461051
KPNT 110915Z AUTO 00000KT 10SM SCT100 M05/M05 A3005 RMK AO2 T10461050
KPNT 110855Z AUTO 00000KT 10SM BKN090 M06/M06 A3007 RMK AO2 T10581061
KPNT 110835Z AUTO 19003KT 10SM SCT090 M07/M07 A3007 RMK AO2 T10661068
KPNT 110815Z AUTO 16004KT 10SM CLR M08/M08 A3006 RMK AO2 T10831085
KPNT 110755Z AUTO 00000KT 10SM CLR M09/M10 A3007 RMK AO2 T10901096
KPNT 110735Z AUTO 00000KT 10SM CLR M09/M09 A3007 RMK AO2 T10871091
KPNT 110715Z AUTO 00000KT 10SM CLR M09/M09 A3008 RMK AO2 T10861090
KPNT 110655Z AUTO 00000KT 10SM CLR M08/M08 A3009 RMK AO2 T10801082
KPNT 110635Z AUTO 00000KT 10SM CLR M08/M08 A3009 RMK AO2 T10791081
KPNT 110615Z AUTO 20003KT 10SM CLR M08/M08 A3011 RMK AO2 T10791082
KPNT 110555Z AUTO 00000KT 10SM CLR M08/M09 A3010 RMK AO2 T10801088 10002 21080 400431085
KPNT 110535Z AUTO 00000KT 10SM CLR M06/M07 A3011 RMK AO2 T10641069
KPNT 110515Z AUTO 00000KT 10SM CLR M05/M06 A3011 RMK AO2 T10531061
KPNT 110455Z AUTO 00000KT 10SM CLR M05/M06 A3012 RMK AO2 T10501063
KPNT 110435Z AUTO 27003KT 10SM CLR M05/M06 A3012 RMK AO2 T10461057
KPNT 110415Z AUTO 25003KT 10SM CLR M05/M06 A3011 RMK AO2 T10471060
KPNT 110355Z AUTO 00000KT 10SM CLR M04/M06 A3011 RMK AO2 T10441059
KPNT 110335Z AUTO 00000KT 10SM CLR M04/M06 A3011 RMK AO2 T10381058
KPNT 110315Z AUTO 31003KT 10SM CLR M03/M05 A3011 RMK AO2 T10291055
KPNT 110255Z AUTO 32003KT 10SM CLR M03/M06 A3011 RMK AO2 T10321060
KPNT 110235Z AUTO 31003KT 10SM CLR M02/M05 A3011 RMK AO2 T10211052
KPNT 110215Z AUTO 31003KT 10SM CLR M02/M05 A3010 RMK AO2 T10211053
KPNT 110155Z AUTO 30004KT 10SM CLR M02/M05 A3010 RMK AO2 T10201055
KPNT 110135Z AUTO 31004KT 10SM CLR M01/M05 A3009 RMK AO2 T10151052
KPNT 110115Z AUTO 31004KT 10SM SCT120 M01/M05 A3009 RMK AO2 T10101050
KPNT 110055Z AUTO 32005KT 10SM CLR 00/M05 A3008 RMK AO2 T10011047
KPNT 110035Z AUTO 33006KT 10SM CLR 00/M05 A3007 RMK AO2 T00001047
KPNT 110015Z AUTO 32007KT 10SM CLR 00/M05 A3006 RMK AO2 T00011046
KPNT 102355Z AUTO 33009KT 10SM CLR 00/M05 A3006 RMK AO2 T00011047 10043 20000
KPNT 102335Z AUTO 33008KT 10SM CLR 00/M05 A3005 RMK AO2 T00011048
KPNT 102315Z AUTO 33009KT 10SM CLR 00/M05 A3005 RMK AO2 T00001050
KPNT 102255Z AUTO 33007KT 10SM CLR 00/M05 A3003 RMK AO2 T00001051
KPNT 102235Z AUTO 32009KT 10SM CLR 01/M05 A3002 RMK AO2 T00051052
KPNT 102215Z AUTO 32009KT 10SM CLR 01/M05 A3001 RMK AO2 T00131050
KPNT 102155Z AUTO 32012G18KT 10SM CLR 02/M05 A2999 RMK AO2 T00221050
KPNT 102135Z AUTO 32014KT 10SM CLR 03/M05 A2998 RMK AO2 T00301049
KPNT 102115Z AUTO 31014KT 10SM CLR 03/M05 A2996 RMK AO2 T00321050
KPNT 102055Z AUTO 30018G21KT 10SM CLR 04/M05 A2995 RMK AO2 T00371050
KPNT 102035Z AUTO 30014G21KT 10SM CLR 04/M05 A2994 RMK AO2 T00381050
KPNT 102015Z AUTO 29016G22KT 10SM CLR 04/M05 A2993 RMK AO2 T00421050
KPNT 101955Z AUTO 29013G23KT 10SM CLR 04/M05 A2992 RMK AO2 T00421050
KPNT 101935Z AUTO 28013G20KT 10SM CLR 04/M05 A2991 RMK AO2 T00381053
KPNT 101915Z AUTO 30015KT 10SM CLR 04/M05 A2991 RMK AO2 T00361055
KPNT 101855Z AUTO 28015KT 10SM CLR 03/M06 A2990 RMK AO2 T00311057
KPNT 101835Z AUTO 29015KT 10SM CLR 03/M06 A2991 RMK AO2 T00271059
KPNT 101815Z AUTO 27013KT 10SM CLR 03/M06 A2990 RMK AO2 T00251061
KPNT 101755Z AUTO 25015G19KT 10SM CLR 02/M06 A2992 RMK AO2 T00201062 10022 21038
KPNT 101735Z AUTO 26018KT 10SM CLR 02/M06 A2993 RMK AO2 T00221061
KPNT 101715Z AUTO 25016G19KT 10SM CLR 02/M06 A2993 RMK AO2 T00151064
KPNT 101655Z AUTO 25017G21KT 10SM CLR 01/M07 A2993 RMK AO2 T00141066
KPNT 101635Z AUTO 24016G22KT 10SM CLR 01/M07 A2993 RMK AO2 T00131068
KPNT 101615Z AUTO 24015G23KT 10SM CLR 01/M07 A2993 RMK AO2 T00051068
KPNT 101555Z AUTO 23017G24KT 10SM CLR 00/M07 A2994 RMK AO2 T00031069
KPNT 101535Z AUTO 23015G26KT 10SM CLR 00/M07 A2994 RMK AO2 T00011070
KPNT 101515Z AUTO 22015G21KT 10SM CLR M01/M07 A2994 RMK AO2 T10071073
KPNT 101455Z AUTO 20015KT 10SM CLR M01/M08 A2994 RMK AO2 T10151076
KPNT 101435Z AUTO 20015G20KT 10SM CLR M02/M08 A2995 RMK AO2 T10251078
KPNT 101415Z AUTO 20014G19KT 10SM CLR M03/M08 A2996 RMK AO2 T10301081
KPNT 101355Z AUTO 20013KT 10SM CLR M03/M08 A2996 RMK AO2 T10321083
KPNT 101335Z AUTO 20011KT 10SM CLR M03/M08 A2998 RMK AO2 T10351085
KPNT 101315Z AUTO 21014G18KT 10SM SCT090 M04/M08 A2999 RMK AO2 T10361084
KPNT 101255Z AUTO 20012KT 10SM BKN090 M03/M08 A2999 RMK AO2 T10351085
KPNT 101235Z AUTO 21009KT 10SM BKN100 M04/M08 A3000 RMK AO2 T10381085
KPNT 101215Z AUTO 21010KT 10SM OVC100 M04/M08 A3000 RMK AO2 T10381084
KPNT 101155Z AUTO 21009KT 10SM OVC100 M04/M08 A3000 RMK AO2 T10371082 11037 21085
KPNT 101135Z AUTO 21009KT 10SM BKN100 M04/M08 A2999 RMK AO2 T10371083
KPNT 101115Z AUTO 22013G16KT 10SM SCT100 M04/M08 A3000 RMK AO2 T10381082
KPNT 101055Z AUTO 22011G14KT 10SM OVC100 M04/M08 A3001 RMK AO2 T10401079
KPNT 101035Z AUTO 22010G15KT 10SM OVC100 M04/M08 A3001 RMK AO2 T10421078
KPNT 101015Z AUTO 22010KT 10SM OVC100 M04/M08 A3002 RMK AO2 T10431077
KPNT 100955Z AUTO 22009KT 10SM OVC100 M04/M08 A3003 RMK AO2 T10451077
KPNT 100935Z AUTO 22007KT 10SM OVC100 M05/M08 A3004 RMK AO2 T10461080
KPNT 100915Z AUTO 23009KT 10SM BKN110 M05/M08 A3005 RMK AO2 T10501080
KPNT 100855Z AUTO 23009KT 10SM CLR M05/M08 A3006 RMK AO2 T10521081
KPNT 100835Z AUTO 22006KT 10SM CLR M06/M08 A3007 RMK AO2 T10561081
KPNT 100815Z AUTO 23006KT 10SM CLR M06/M08 A3007 RMK AO2 T10561081
KPNT 100755Z AUTO 24007KT 10SM SCT100 SCT120 M06/M09 A3008 RMK AO2 T10601086
KPNT 100735Z AUTO 25007KT 10SM BKN100 M06/M09 A3009 RMK AO2 T10641090
KPNT 100715Z AUTO 24007KT 10SM BKN110 M07/M09 A3009 RMK AO2 T10701093
KPNT 100655Z AUTO 23007KT 10SM CLR M08/M10 A3009 RMK AO2 T10781100
KPNT 100635Z AUTO 24007KT 10SM CLR M08/M10 A3010 RMK AO2 T10851105
KPNT 100615Z AUTO 24007KT 10SM CLR M08/M10 A3010 RMK AO2 T10831100
KPNT 100555Z AUTO 24007KT 10SM CLR M08/M10 A3011 RMK AO2 T10811102 11039 21087 400001087
KPNT 100535Z AUTO 25006KT 10SM CLR M08/M10 A3012 RMK AO2 T10831102
KPNT 100515Z AUTO 26006KT 10SM CLR M09/M10 A3013 RMK AO2 T10861105
KPNT 100455Z AUTO 25005KT 10SM CLR M08/M10 A3013 RMK AO2 T10851105
KPNT 100435Z AUTO 26004KT 10SM CLR M08/M10 A3013 RMK AO2 T10801103
KPNT 100410Z AUTO 26005KT 10SM CLR M08/M10 A3012 RMK AO2 T10821102
KPNT 100355Z AUTO 26005KT 10SM CLR M08/M10 A3012 RMK AO2 T10781100
KPNT 100335Z AUTO 25006KT 10SM CLR M07/M10 A3013 RMK AO2 T10731096
KPNT 100315Z AUTO 26006KT 10SM CLR M07/M10 A3013 RMK AO2 T10751096
KPNT 100255Z AUTO 27007KT 10SM CLR M07/M09 A3013 RMK AO2 T10691094
KPNT 100235Z AUTO 28007KT 10SM CLR M06/M09 A3012 RMK AO2 T10651093
KPNT 100215Z AUTO 29007KT 10SM CLR M07/M09 A3012 RMK AO2 T10661095
KPNT 100155Z AUTO 29005KT 10SM CLR M06/M09 A3011 RMK AO2 T10601094
KPNT 100135Z AUTO 29006KT 10SM CLR M06/M09 A3011 RMK AO2 T10591092
KPNT 100115Z AUTO 30008KT 10SM CLR M05/M09 A3011 RMK AO2 T10531090